Freistadt, Austria
Current Conditions -  °F | °C
As of 6:20 AM on Thursday 23 Oct 2014 (Local Time) from LOWL Reporting Station
Moderate Rain Moderate Rain  
Wind Chill: 40°   Ceiling: 3000
Heat Index: 46°   Visibility: 6mi
Dew Point: 45°   Wind: 14mph
Humidity: 93%   Direction: 290°WNW
Pressure: 29.8"   Gusts: NA
Location:  48.52°N, 14.5°E
Report Text: LOWL 230420Z 29012KT 9999 RA FEW013 BKN030 OVC050 08/07 Q1009 NOSIG
Loading
Personal Weather Stations






























Interactive Weather Map
Tropical Storm Tracking
New forecast layout! Learn more

10-Day Weather Forecast

Advertisements
Track Severe Weather on mobile